X  Zatvori METAR podaci zračne luke     KDNN Dalton Municipal Airport
Temperatura
22°C Temperatura
22°C Točka rosišta
100% Vlaga



Vjetar
0 MPS
0 KM/S
0 M/S
0 Čvorovi



Tišina
S
Trenutna situacija

Slaba Kiša, Magla Slaba Kiša, Magla
Tlak zraka 1021 (hPa) - 30.15 (inHg)
Vidljivost 3 (milje) - 4.8 (km)
Zračna luka
Kôd zračne luke KDNN

Lokacija: Dalton Municipal Airport
Udaljenost: 34 (mi)

Metar:
KDNN 250955Z AUTO 00000KT 3SM -RA BR FEW004 OVC010 22/22 A3015 RMK AO2 RAB0952 CIG 008V012 P0000 T02230223

Vrijeme: 07-25-2024 05:55 EDT